createdAt,value
2023-01-18T00:00:28.988Z,0.09
2023-01-18T00:01:28.943Z,0.11
2023-01-18T00:02:28.945Z,0.11
2023-01-18T00:03:28.926Z,0.11
2023-01-18T00:04:28.911Z,0.10
2023-01-18T00:05:28.907Z,0.09
2023-01-18T00:06:28.901Z,0.09
2023-01-18T00:07:28.883Z,0.09
2023-01-18T00:08:28.866Z,0.08
2023-01-18T00:09:28.855Z,0.08
2023-01-18T00:10:28.850Z,0.08
2023-01-18T00:11:28.848Z,0.08
2023-01-18T00:12:28.833Z,0.08
2023-01-18T00:13:28.809Z,0.07
2023-01-18T00:14:28.801Z,0.07
2023-01-18T00:15:28.790Z,0.08
2023-01-18T00:16:28.827Z,0.08
2023-01-18T00:17:28.784Z,0.08
2023-01-18T00:18:28.759Z,0.08
2023-01-18T00:19:28.744Z,0.09
2023-01-18T00:20:28.760Z,0.09
2023-01-18T00:21:28.744Z,0.10
2023-01-18T00:22:28.735Z,0.11
2023-01-18T00:23:28.731Z,0.12
2023-01-18T00:24:28.705Z,0.13
2023-01-18T00:25:28.678Z,0.13
2023-01-18T00:26:28.677Z,0.15
2023-01-18T00:27:28.661Z,0.16
2023-01-18T00:28:28.657Z,0.18
2023-01-18T00:29:28.648Z,0.19
2023-01-18T00:30:28.630Z,0.20
2023-01-18T00:31:28.674Z,0.22
2023-01-18T00:32:28.610Z,0.24
2023-01-18T00:33:28.633Z,0.25
2023-01-18T00:34:28.590Z,0.26
2023-01-18T00:35:28.660Z,0.26
2023-01-18T00:36:28.566Z,0.26
2023-01-18T00:37:28.562Z,0.26
2023-01-18T00:38:28.547Z,0.27
2023-01-18T00:39:28.557Z,0.27
2023-01-18T00:40:28.521Z,0.28
2023-01-18T00:41:28.509Z,0.29
2023-01-18T00:42:28.515Z,0.31
2023-01-18T00:43:28.490Z,0.32
2023-01-18T00:44:28.484Z,0.32
2023-01-18T00:45:28.533Z,0.33
2023-01-18T00:46:28.457Z,0.33
2023-01-18T00:47:28.443Z,0.33
2023-01-18T00:48:28.447Z,0.34
2023-01-18T00:49:28.421Z,0.35
2023-01-18T00:50:28.408Z,0.35
2023-01-18T00:51:28.415Z,0.36
2023-01-18T00:52:28.394Z,0.37
2023-01-18T00:53:28.378Z,0.36
2023-01-18T00:54:28.367Z,0.36
2023-01-18T00:55:28.364Z,0.36
2023-01-18T00:56:28.375Z,0.36
2023-01-18T00:57:28.336Z,0.36
2023-01-18T00:58:28.322Z,0.36
2023-01-18T00:59:28.314Z,0.37
2023-01-18T01:00:28.304Z,0.37
2023-01-18T01:01:28.362Z,0.37
2023-01-18T01:02:28.359Z,0.37
2023-01-18T01:03:28.274Z,0.37
2023-01-18T01:04:28.264Z,0.38
2023-01-18T01:05:28.252Z,0.38
2023-01-18T01:06:28.261Z,0.39
2023-01-18T01:07:28.230Z,0.39
2023-01-18T01:08:28.215Z,0.40
2023-01-18T01:09:28.205Z,0.41
2023-01-18T01:10:28.211Z,0.41
2023-01-18T01:11:28.188Z,0.41
2023-01-18T01:12:28.180Z,0.41
2023-01-18T01:13:28.175Z,0.41
2023-01-18T01:14:28.144Z,0.41
2023-01-18T01:15:28.149Z,0.41
2023-01-18T01:16:28.159Z,0.41
2023-01-18T01:17:28.120Z,0.42
2023-01-18T01:18:28.119Z,0.43
2023-01-18T01:19:28.105Z,0.44
2023-01-18T01:20:28.097Z,0.44
2023-01-18T01:21:28.102Z,0.45
2023-01-18T01:22:28.067Z,0.45
2023-01-18T01:23:28.069Z,0.45
2023-01-18T01:24:28.053Z,0.44
2023-01-18T01:25:28.038Z,0.44
2023-01-18T01:26:28.038Z,0.44
2023-01-18T01:27:28.015Z,0.45
2023-01-18T01:28:28.023Z,0.45
2023-01-18T01:29:28.000Z,0.46
2023-01-18T01:30:27.986Z,0.47
2023-01-18T01:31:27.977Z,0.49
2023-01-18T01:32:27.978Z,0.49
2023-01-18T01:33:27.947Z,0.50
2023-01-18T01:34:27.942Z,0.51
2023-01-18T01:35:27.926Z,0.52
2023-01-18T01:36:27.913Z,0.53
2023-01-18T01:37:27.917Z,0.54
2023-01-18T01:38:27.899Z,0.54
2023-01-18T01:39:27.885Z,0.55
2023-01-18T01:40:27.870Z,0.56
2023-01-18T01:41:27.860Z,0.57
2023-01-18T01:42:27.868Z,0.58
2023-01-18T01:43:27.836Z,0.59
2023-01-18T01:44:27.863Z,0.59
2023-01-18T01:45:27.824Z,0.59
2023-01-18T01:46:27.813Z,0.58
2023-01-18T01:47:27.813Z,0.58
2023-01-18T01:48:27.787Z,0.57
2023-01-18T01:49:27.781Z,0.57
2023-01-18T01:50:27.784Z,0.57
2023-01-18T01:51:27.752Z,0.57
2023-01-18T01:52:27.781Z,0.56
2023-01-18T01:53:27.735Z,0.56
2023-01-18T01:54:27.722Z,0.55
2023-01-18T01:55:27.721Z,0.55
2023-01-18T01:56:27.701Z,0.55
2023-01-18T01:57:27.689Z,0.55
2023-01-18T01:58:27.697Z,0.56
2023-01-18T01:59:27.670Z,0.56
2023-01-18T02:00:27.652Z,0.56
2023-01-18T02:01:27.743Z,0.56
2023-01-18T02:02:27.702Z,0.56
2023-01-18T02:03:27.655Z,0.55
2023-01-18T02:04:27.614Z,0.55
2023-01-18T02:05:27.609Z,0.56
2023-01-18T02:06:27.616Z,0.57
2023-01-18T02:07:27.580Z,0.58
2023-01-18T02:08:27.586Z,0.60
2023-01-18T02:09:27.560Z,0.61
2023-01-18T02:10:27.545Z,0.62
2023-01-18T02:11:27.555Z,0.63
2023-01-18T02:12:27.532Z,0.63
2023-01-18T02:13:27.531Z,0.62
2023-01-18T02:14:27.510Z,0.61
2023-01-18T02:15:27.503Z,0.60
2023-01-18T02:16:27.545Z,0.59
2023-01-18T02:17:27.470Z,0.58
2023-01-18T02:18:27.476Z,0.57
2023-01-18T02:19:27.451Z,0.58
2023-01-18T02:20:27.435Z,0.58
2023-01-18T02:21:27.433Z,0.59
2023-01-18T02:22:27.418Z,0.59
2023-01-18T02:23:27.443Z,0.60
2023-01-18T02:24:27.423Z,0.61
2023-01-18T02:25:27.389Z,0.63
2023-01-18T02:26:27.379Z,0.63
2023-01-18T02:27:27.370Z,0.64
2023-01-18T02:28:27.357Z,0.66
2023-01-18T02:29:27.359Z,0.67
2023-01-18T02:30:27.334Z,0.68
2023-01-18T02:31:27.323Z,0.68
2023-01-18T02:32:27.307Z,0.67
2023-01-18T02:33:27.321Z,0.67
2023-01-18T02:34:27.287Z,0.67
2023-01-18T02:35:27.278Z,0.67
2023-01-18T02:36:27.269Z,0.67
2023-01-18T02:37:27.260Z,0.67
2023-01-18T02:38:27.257Z,0.68
2023-01-18T02:39:27.235Z,0.68
2023-01-18T02:40:27.238Z,0.68
2023-01-18T02:41:27.215Z,0.69
2023-01-18T02:42:27.214Z,0.69
2023-01-18T02:43:27.209Z,0.69
2023-01-18T02:44:27.244Z,0.69
2023-01-18T02:45:27.177Z,0.69
2023-01-18T02:46:27.212Z,0.69
2023-01-18T02:47:27.151Z,0.68
2023-01-18T02:48:27.154Z,0.68
2023-01-18T02:49:27.169Z,0.67
2023-01-18T02:50:27.144Z,0.67
2023-01-18T02:51:27.119Z,0.68
2023-01-18T02:52:27.099Z,0.68
2023-01-18T02:53:27.114Z,0.69
2023-01-18T02:54:27.092Z,0.69
2023-01-18T02:55:27.065Z,0.71
2023-01-18T02:56:27.080Z,0.72
2023-01-18T02:57:27.074Z,0.74
2023-01-18T02:58:27.032Z,0.76
2023-01-18T02:59:27.027Z,0.78
2023-01-18T03:00:27.023Z,0.79
2023-01-18T03:01:27.300Z,0.79
2023-01-18T03:02:27.038Z,0.80
2023-01-18T03:03:26.995Z,0.81
2023-01-18T03:04:26.964Z,0.82
2023-01-18T03:05:26.964Z,0.83
2023-01-18T03:06:26.996Z,0.84
2023-01-18T03:07:26.947Z,0.85
2023-01-18T03:08:26.935Z,0.85
2023-01-18T03:09:26.914Z,0.86
2023-01-18T03:10:26.896Z,0.86
2023-01-18T03:11:26.892Z,0.87
2023-01-18T03:12:26.902Z,0.87
2023-01-18T03:13:26.876Z,0.88
2023-01-18T03:14:26.868Z,0.90
2023-01-18T03:15:26.870Z,0.91
2023-01-18T03:16:26.842Z,0.92
2023-01-18T03:17:26.850Z,0.93
2023-01-18T03:18:26.818Z,0.94
2023-01-18T03:19:26.803Z,0.96
2023-01-18T03:20:26.804Z,0.97
2023-01-18T03:21:26.780Z,0.99
2023-01-18T03:22:26.776Z,1.00
2023-01-18T03:23:26.783Z,1.00
2023-01-18T03:24:26.754Z,1.01
2023-01-18T03:25:26.751Z,1.01
2023-01-18T03:26:26.752Z,1.02
2023-01-18T03:27:26.738Z,1.02
2023-01-18T03:28:26.730Z,1.03
2023-01-18T03:29:26.704Z,1.03
2023-01-18T03:30:26.685Z,1.03
2023-01-18T03:31:26.677Z,1.03
2023-01-18T03:32:26.669Z,1.04
2023-01-18T03:33:26.668Z,1.05
2023-01-18T03:34:26.641Z,1.05
2023-01-18T03:35:26.632Z,1.05
2023-01-18T03:36:26.646Z,1.05
2023-01-18T03:37:26.611Z,1.05
2023-01-18T03:38:26.607Z,1.05
2023-01-18T03:39:26.614Z,1.05
2023-01-18T03:40:26.590Z,1.05
2023-01-18T03:41:26.577Z,1.05
2023-01-18T03:42:26.567Z,1.05
2023-01-18T03:43:26.548Z,1.05
2023-01-18T03:44:26.573Z,1.05
2023-01-18T03:45:26.548Z,1.05
2023-01-18T03:46:26.558Z,1.04
2023-01-18T03:47:26.513Z,1.04
2023-01-18T03:48:26.493Z,1.04
2023-01-18T03:49:26.506Z,1.05
2023-01-18T03:50:26.471Z,1.05
2023-01-18T03:51:26.472Z,1.05
2023-01-18T03:52:26.454Z,1.06
2023-01-18T03:53:26.443Z,1.07
2023-01-18T03:54:26.443Z,1.08
2023-01-18T03:55:26.441Z,1.09
2023-01-18T03:56:26.403Z,1.09
2023-01-18T03:57:26.399Z,1.10
2023-01-18T03:58:26.387Z,1.11
2023-01-18T03:59:26.398Z,1.11
2023-01-18T04:00:26.365Z,1.13
2023-01-18T04:01:26.462Z,1.14
2023-01-18T04:02:26.408Z,1.15
2023-01-18T04:03:26.335Z,1.16
2023-01-18T04:04:26.347Z,1.16
2023-01-18T04:05:26.309Z,1.17
2023-01-18T04:06:26.312Z,1.17
2023-01-18T04:07:26.308Z,1.17
2023-01-18T04:08:26.291Z,1.18
2023-01-18T04:09:26.289Z,1.18
2023-01-18T04:10:26.267Z,1.19
2023-01-18T04:11:26.268Z,1.20
2023-01-18T04:12:26.235Z,1.20
2023-01-18T04:13:26.224Z,1.20
2023-01-18T04:14:26.228Z,1.21
2023-01-18T04:15:26.222Z,1.21
2023-01-18T04:16:26.197Z,1.21
2023-01-18T04:17:26.183Z,1.22
2023-01-18T04:18:26.165Z,1.22
2023-01-18T04:19:26.163Z,1.23
2023-01-18T04:20:26.166Z,1.24
2023-01-18T04:21:26.147Z,1.25
2023-01-18T04:22:26.127Z,1.26
2023-01-18T04:23:26.124Z,1.27
2023-01-18T04:24:26.109Z,1.28
2023-01-18T04:25:26.112Z,1.29
2023-01-18T04:26:26.112Z,1.30
2023-01-18T04:27:26.086Z,1.30
2023-01-18T04:28:26.113Z,1.31
2023-01-18T04:29:26.064Z,1.31
2023-01-18T04:30:26.042Z,1.30
2023-01-18T04:31:26.078Z,1.30
2023-01-18T04:32:26.034Z,1.30
2023-01-18T04:33:26.006Z,1.30
2023-01-18T04:34:26.002Z,1.29
2023-01-18T04:35:25.991Z,1.29
2023-01-18T04:36:25.988Z,1.29
2023-01-18T04:37:25.988Z,1.29
2023-01-18T04:38:25.950Z,1.28
2023-01-18T04:39:25.944Z,1.28
2023-01-18T04:40:25.939Z,1.27
2023-01-18T04:41:25.933Z,1.28
2023-01-18T04:42:25.968Z,1.28
2023-01-18T04:43:25.927Z,1.28
2023-01-18T04:44:33.655Z,1.29
2023-01-18T04:45:25.886Z,1.30
2023-01-18T04:46:25.889Z,1.31
2023-01-18T04:47:25.875Z,1.32
2023-01-18T04:48:25.862Z,1.33
2023-01-18T04:49:25.842Z,1.34
2023-01-18T04:50:25.828Z,1.35
2023-01-18T04:51:25.815Z,1.35
2023-01-18T04:52:25.808Z,1.36
2023-01-18T04:53:25.826Z,1.36
2023-01-18T04:54:25.778Z,1.37
2023-01-18T04:55:25.789Z,1.37
2023-01-18T04:56:25.770Z,1.38
2023-01-18T04:57:25.770Z,1.39
2023-01-18T04:58:25.767Z,1.40
2023-01-18T04:59:25.731Z,1.41
2023-01-18T05:00:25.750Z,1.41
2023-01-18T05:01:25.839Z,1.42
2023-01-18T05:02:25.834Z,1.42
2023-01-18T05:03:25.702Z,1.42
2023-01-18T05:04:25.679Z,1.43
2023-01-18T05:05:26.428Z,1.43
2023-01-18T05:06:25.652Z,1.43
2023-01-18T05:07:25.649Z,1.43
2023-01-18T05:08:25.653Z,1.44
2023-01-18T05:09:25.633Z,1.44
2023-01-18T05:10:25.603Z,1.45
2023-01-18T05:11:25.606Z,1.45
2023-01-18T05:12:25.584Z,1.46
2023-01-18T05:13:25.589Z,1.46
2023-01-18T05:14:25.576Z,1.46
2023-01-18T05:15:25.579Z,1.47
2023-01-18T05:16:25.602Z,1.47
2023-01-18T05:17:25.534Z,1.47
2023-01-18T05:18:25.539Z,1.47
2023-01-18T05:19:25.543Z,1.47
2023-01-18T05:20:25.501Z,1.47
2023-01-18T05:21:25.495Z,1.48
2023-01-18T05:22:25.502Z,1.48
2023-01-18T05:23:25.489Z,1.49
2023-01-18T05:24:25.855Z,1.49
2023-01-18T05:25:25.450Z,1.49
2023-01-18T05:26:25.454Z,1.50
2023-01-18T05:27:25.434Z,1.50
2023-01-18T05:28:25.439Z,1.50
2023-01-18T05:29:25.408Z,1.49
2023-01-18T05:30:25.389Z,1.49
2023-01-18T05:31:25.418Z,1.49
2023-01-18T05:32:25.382Z,1.49
2023-01-18T05:33:25.385Z,1.49
2023-01-18T05:34:25.371Z,1.50
2023-01-18T05:35:25.339Z,1.50
2023-01-18T05:36:25.332Z,1.51
2023-01-18T05:37:26.045Z,1.51
2023-01-18T05:38:25.338Z,1.52
2023-01-18T05:39:25.306Z,1.52
2023-01-18T05:40:25.287Z,1.52
2023-01-18T05:41:25.283Z,1.52
2023-01-18T05:42:25.265Z,1.53
2023-01-18T05:43:25.281Z,1.52
2023-01-18T05:44:25.248Z,1.52
2023-01-18T05:45:25.248Z,1.51
2023-01-18T05:46:25.230Z,1.50
2023-01-18T05:47:25.209Z,1.49
2023-01-18T05:48:25.224Z,1.48
2023-01-18T05:49:25.196Z,1.48
2023-01-18T05:50:25.200Z,1.47
2023-01-18T05:51:25.164Z,1.46
2023-01-18T05:52:25.161Z,1.46
2023-01-18T05:53:25.278Z,1.45
2023-01-18T05:54:25.161Z,1.44
2023-01-18T05:55:25.149Z,1.44
2023-01-18T05:56:25.150Z,1.43
2023-01-18T05:57:25.116Z,1.43
2023-01-18T05:58:25.097Z,1.43
2023-01-18T05:59:25.088Z,1.44
2023-01-18T06:00:25.084Z,1.45
2023-01-18T06:01:25.154Z,1.46
2023-01-18T06:02:25.045Z,1.46
2023-01-18T06:03:25.035Z,1.46
2023-01-18T06:04:25.063Z,1.47
2023-01-18T06:05:25.065Z,1.46
2023-01-18T06:06:25.006Z,1.46
2023-01-18T06:07:25.002Z,1.46
2023-01-18T06:08:25.005Z,1.46
2023-01-18T06:09:25.118Z,1.46
2023-01-18T06:10:24.961Z,1.46
2023-01-18T06:11:25.003Z,1.45
2023-01-18T06:12:24.948Z,1.45
2023-01-18T06:13:25.022Z,1.45
2023-01-18T06:14:24.923Z,1.44
2023-01-18T06:15:24.921Z,1.44
2023-01-18T06:16:24.926Z,1.43
2023-01-18T06:17:24.884Z,1.42
2023-01-18T06:18:24.882Z,1.41
2023-01-18T06:19:24.871Z,1.40
2023-01-18T06:20:24.851Z,1.40
2023-01-18T06:21:24.876Z,1.40
2023-01-18T06:22:24.838Z,1.40
2023-01-18T06:23:24.841Z,1.40
2023-01-18T06:24:24.821Z,1.40
2023-01-18T06:25:24.798Z,1.39
2023-01-18T06:26:24.815Z,1.39
2023-01-18T06:27:24.778Z,1.39
2023-01-18T06:28:24.780Z,1.39
2023-01-18T06:29:24.758Z,1.39
2023-01-18T06:30:24.758Z,1.39
2023-01-18T06:31:24.778Z,1.40
2023-01-18T06:32:24.736Z,1.40
2023-01-18T06:33:24.715Z,1.39
2023-01-18T06:34:24.711Z,1.39
2023-01-18T06:35:24.700Z,1.38
2023-01-18T06:36:24.699Z,1.39
2023-01-18T06:37:24.681Z,1.39
2023-01-18T06:38:24.679Z,1.39
2023-01-18T06:39:24.665Z,1.40
2023-01-18T06:40:24.646Z,1.40
2023-01-18T06:41:24.649Z,1.40
2023-01-18T06:42:24.611Z,1.40
2023-01-18T06:43:24.649Z,1.39
2023-01-18T06:44:24.594Z,1.39
2023-01-18T06:45:24.598Z,1.39
2023-01-18T06:46:24.592Z,1.40
2023-01-18T06:47:24.571Z,1.40
2023-01-18T06:48:24.597Z,1.40
2023-01-18T06:49:24.596Z,1.41
2023-01-18T06:50:24.527Z,1.41
2023-01-18T06:51:24.538Z,1.41
2023-01-18T06:52:24.526Z,1.41
2023-01-18T06:53:24.533Z,1.41
2023-01-18T06:54:24.579Z,1.41
2023-01-18T06:55:24.497Z,1.40
2023-01-18T06:56:24.466Z,1.40
2023-01-18T06:57:24.471Z,1.40
2023-01-18T06:58:24.460Z,1.40
2023-01-18T06:59:24.435Z,1.40
2023-01-18T07:00:24.438Z,1.40
2023-01-18T07:01:24.498Z,1.40
2023-01-18T07:02:24.416Z,1.40
2023-01-18T07:03:24.411Z,1.39
2023-01-18T07:04:24.472Z,1.39
2023-01-18T07:05:24.373Z,1.39
2023-01-18T07:06:24.384Z,1.39
2023-01-18T07:07:24.352Z,1.39
2023-01-18T07:08:24.395Z,1.39
2023-01-18T07:09:24.331Z,1.39
2023-01-18T07:10:24.336Z,1.40
2023-01-18T07:11:24.315Z,1.41
2023-01-18T07:12:24.320Z,1.41
2023-01-18T07:13:24.298Z,1.42
2023-01-18T07:14:24.281Z,1.43
2023-01-18T07:15:24.273Z,1.44
2023-01-18T07:16:24.301Z,1.44
2023-01-18T07:17:24.261Z,1.44
2023-01-18T07:18:24.282Z,1.44
2023-01-18T07:19:24.223Z,1.43
2023-01-18T07:20:24.211Z,1.43
2023-01-18T07:21:24.212Z,1.43
2023-01-18T07:22:24.189Z,1.43
2023-01-18T07:23:24.184Z,1.44
2023-01-18T07:24:24.190Z,1.44
2023-01-18T07:25:24.165Z,1.45
2023-01-18T07:26:24.169Z,1.45
2023-01-18T07:27:24.144Z,1.46
2023-01-18T07:28:24.126Z,1.47
2023-01-18T07:29:24.117Z,1.48
2023-01-18T07:30:24.120Z,1.48
2023-01-18T07:31:24.111Z,1.49
2023-01-18T07:32:24.074Z,1.49
2023-01-18T07:33:24.086Z,1.49
2023-01-18T07:34:24.075Z,1.49
2023-01-18T07:35:24.110Z,1.49
2023-01-18T07:36:24.058Z,1.49
2023-01-18T07:37:24.042Z,1.50
2023-01-18T07:38:24.057Z,1.50
2023-01-18T07:39:24.018Z,1.51
2023-01-18T07:40:24.008Z,1.51
2023-01-18T07:41:24.009Z,1.51
2023-01-18T07:42:23.976Z,1.51
2023-01-18T07:43:23.961Z,1.50
2023-01-18T07:44:23.948Z,1.49
2023-01-18T07:45:23.973Z,1.49
2023-01-18T07:46:24.019Z,1.48
2023-01-18T07:47:23.914Z,1.48
2023-01-18T07:48:23.910Z,1.47
2023-01-18T07:49:23.918Z,1.45
2023-01-18T07:50:23.901Z,1.44
2023-01-18T07:51:23.892Z,1.44
2023-01-18T07:52:23.865Z,1.43
2023-01-18T07:53:23.887Z,1.42
2023-01-18T07:54:23.872Z,1.41
2023-01-18T07:55:23.828Z,1.41
2023-01-18T07:56:23.822Z,1.40
2023-01-18T07:57:23.824Z,1.40
2023-01-18T07:58:23.801Z,1.40
2023-01-18T07:59:23.832Z,1.41
2023-01-18T08:00:23.783Z,1.40
2023-01-18T08:01:23.906Z,1.39
2023-01-18T08:02:23.771Z,1.38
2023-01-18T08:03:23.739Z,1.38
2023-01-18T08:04:23.757Z,1.37
2023-01-18T08:05:23.744Z,1.37
2023-01-18T08:06:23.718Z,1.37
2023-01-18T08:07:23.712Z,1.37
2023-01-18T08:08:23.697Z,1.38
2023-01-18T08:09:23.707Z,1.39
2023-01-18T08:10:23.672Z,1.39
2023-01-18T08:11:23.668Z,1.40
2023-01-18T08:12:23.651Z,1.41
2023-01-18T08:13:23.640Z,1.42
2023-01-18T08:14:23.636Z,1.43
2023-01-18T08:15:23.655Z,1.43
2023-01-18T08:16:23.608Z,1.43
2023-01-18T08:17:23.599Z,1.43
2023-01-18T08:18:23.605Z,1.43
2023-01-18T08:19:23.576Z,1.43
2023-01-18T08:20:23.626Z,1.43
2023-01-18T08:21:23.550Z,1.43
2023-01-18T08:22:23.544Z,1.44
2023-01-18T08:23:23.555Z,1.43
2023-01-18T08:24:23.525Z,1.43
2023-01-18T08:25:23.531Z,1.43
2023-01-18T08:26:23.509Z,1.42
2023-01-18T08:27:25.213Z,1.40
2023-01-18T08:28:23.477Z,1.38
2023-01-18T08:29:23.543Z,1.36
2023-01-18T08:30:23.459Z,1.35
2023-01-18T08:31:23.506Z,1.34
2023-01-18T08:32:23.466Z,1.34
2023-01-18T08:33:23.437Z,1.34
2023-01-18T08:34:23.444Z,1.34
2023-01-18T08:35:24.385Z,1.34
2023-01-18T08:36:23.431Z,1.35
2023-01-18T08:37:23.392Z,1.34
2023-01-18T08:38:23.375Z,1.34
2023-01-18T08:39:23.355Z,1.33
2023-01-18T08:40:23.367Z,1.33
2023-01-18T08:41:23.336Z,1.34
2023-01-18T08:42:23.321Z,1.35
2023-01-18T08:43:23.328Z,1.36
2023-01-18T08:44:23.310Z,1.36
2023-01-18T08:45:23.348Z,1.36
2023-01-18T08:46:23.353Z,1.35
2023-01-18T08:47:23.298Z,1.35
2023-01-18T08:48:23.272Z,1.35
2023-01-18T08:49:23.248Z,1.35
2023-01-18T08:50:23.251Z,1.35
2023-01-18T08:51:23.354Z,1.35
2023-01-18T08:52:23.235Z,1.35
2023-01-18T08:53:23.206Z,1.34
2023-01-18T08:54:23.205Z,1.35
2023-01-18T08:55:23.184Z,1.35
2023-01-18T08:56:23.188Z,1.34
2023-01-18T08:57:23.192Z,1.34
2023-01-18T08:58:23.167Z,1.34
2023-01-18T08:59:23.190Z,1.33
2023-01-18T09:00:23.463Z,1.33
2023-01-18T09:01:23.744Z,1.33
2023-01-18T09:02:23.141Z,1.34
2023-01-18T09:03:23.114Z,1.34
2023-01-18T09:04:23.255Z,1.35
2023-01-18T09:05:23.089Z,1.36
2023-01-18T09:06:23.742Z,1.38
2023-01-18T09:07:23.067Z,1.39
2023-01-18T09:08:23.037Z,1.40
2023-01-18T09:09:23.029Z,1.41
2023-01-18T09:10:23.045Z,1.41
2023-01-18T09:11:23.042Z,1.41
2023-01-18T09:12:22.997Z,1.41
2023-01-18T09:13:23.031Z,1.41
2023-01-18T09:14:22.998Z,1.41
2023-01-18T09:15:22.970Z,1.41
2023-01-18T09:16:23.016Z,1.41
2023-01-18T09:17:22.960Z,1.41
2023-01-18T09:18:22.960Z,1.41
2023-01-18T09:19:22.933Z,1.41
2023-01-18T09:20:22.926Z,1.42
2023-01-18T09:21:22.912Z,1.42
2023-01-18T09:22:22.894Z,1.43
2023-01-18T09:23:22.889Z,1.43
2023-01-18T09:24:22.912Z,1.44
2023-01-18T09:25:22.859Z,1.44
2023-01-18T09:26:22.846Z,1.44
2023-01-18T09:27:22.835Z,1.45
2023-01-18T09:28:22.840Z,1.45
2023-01-18T09:29:22.835Z,1.45
2023-01-18T09:30:22.805Z,1.44
2023-01-18T09:31:22.830Z,1.44
2023-01-18T09:32:22.785Z,1.44
2023-01-18T09:33:22.789Z,1.45
2023-01-18T09:34:22.796Z,1.46
2023-01-18T09:35:22.791Z,1.48
2023-01-18T09:36:22.756Z,1.50
2023-01-18T09:37:22.748Z,1.52
2023-01-18T09:38:22.723Z,1.53
2023-01-18T09:39:22.741Z,1.54
2023-01-18T09:40:22.725Z,1.54
2023-01-18T09:41:22.687Z,1.54
2023-01-18T09:42:22.677Z,1.55
2023-01-18T09:43:22.677Z,1.55
2023-01-18T09:44:22.665Z,1.56
2023-01-18T09:45:22.658Z,1.56
2023-01-18T09:46:22.685Z,1.57
2023-01-18T09:47:22.628Z,1.57
2023-01-18T09:48:22.627Z,1.58
2023-01-18T09:49:22.604Z,1.58
2023-01-18T09:50:22.672Z,1.59
2023-01-18T09:51:22.586Z,1.59
2023-01-18T09:52:22.583Z,1.60
2023-01-18T09:53:22.561Z,1.61
2023-01-18T09:54:22.568Z,1.61
2023-01-18T09:55:22.540Z,1.61
2023-01-18T09:56:22.561Z,1.62
2023-01-18T09:57:22.545Z,1.62
2023-01-18T09:58:22.507Z,1.62
2023-01-18T09:59:22.495Z,1.61
2023-01-18T10:00:22.485Z,1.61
2023-01-18T10:01:22.565Z,1.60
2023-01-18T10:02:22.497Z,1.60
2023-01-18T10:03:22.505Z,1.61
2023-01-18T10:04:22.450Z,1.61
2023-01-18T10:05:22.440Z,1.61
2023-01-18T10:06:22.418Z,1.61
2023-01-18T10:07:22.410Z,1.61
2023-01-18T10:08:22.428Z,1.61
2023-01-18T10:09:22.407Z,1.60
2023-01-18T10:10:22.369Z,1.60
2023-01-18T10:11:22.384Z,1.59
2023-01-18T10:12:22.353Z,1.58
2023-01-18T10:13:22.342Z,1.58
2023-01-18T10:14:22.338Z,1.58
2023-01-18T10:15:22.389Z,1.58
2023-01-18T10:16:22.350Z,1.58
2023-01-18T10:17:22.296Z,1.58
2023-01-18T10:18:22.293Z,1.57
2023-01-18T10:19:22.276Z,1.57
2023-01-18T10:20:22.280Z,1.58
2023-01-18T10:21:22.294Z,1.59
2023-01-18T10:22:22.248Z,1.59
2023-01-18T10:23:22.241Z,1.59
2023-01-18T10:24:22.240Z,1.58
2023-01-18T10:25:22.229Z,1.58
2023-01-18T10:26:22.265Z,1.58
2023-01-18T10:27:22.201Z,1.59
2023-01-18T10:28:22.208Z,1.59
2023-01-18T10:29:22.181Z,1.60
2023-01-18T10:30:22.166Z,1.61
2023-01-18T10:31:22.219Z,1.62
2023-01-18T10:32:22.142Z,1.62
2023-01-18T10:33:22.173Z,1.63
2023-01-18T10:34:22.149Z,1.64
2023-01-18T10:35:22.130Z,1.65
2023-01-18T10:36:22.146Z,1.67
2023-01-18T10:37:22.145Z,1.68
2023-01-18T10:38:22.106Z,1.70
2023-01-18T10:39:22.064Z,1.71
2023-01-18T10:40:22.066Z,1.73
2023-01-18T10:41:22.051Z,1.74
2023-01-18T10:42:22.057Z,1.74
2023-01-18T10:43:22.049Z,1.75
2023-01-18T10:44:22.063Z,1.75
2023-01-18T10:45:22.232Z,1.76
2023-01-18T10:46:21.993Z,1.77
2023-01-18T10:47:22.046Z,1.79
2023-01-18T10:48:22.003Z,1.80
2023-01-18T10:49:21.970Z,1.81
2023-01-18T10:50:21.991Z,1.82
2023-01-18T10:51:21.934Z,1.82
2023-01-18T10:52:21.918Z,1.84
2023-01-18T10:53:33.110Z,1.85
2023-01-18T10:54:21.915Z,1.85
2023-01-18T10:55:21.901Z,1.86
2023-01-18T10:56:21.892Z,1.87
2023-01-18T10:57:21.872Z,1.87
2023-01-18T10:58:21.885Z,1.88
2023-01-18T10:59:21.862Z,1.89
2023-01-18T11:00:21.855Z,1.90
2023-01-18T11:01:21.923Z,1.91
2023-01-18T11:02:21.877Z,1.92
2023-01-18T11:03:21.807Z,1.93
2023-01-18T11:04:21.831Z,1.94
2023-01-18T11:05:21.786Z,1.95
2023-01-18T11:06:21.809Z,1.96
2023-01-18T11:07:21.765Z,1.97
2023-01-18T11:08:21.745Z,1.98
2023-01-18T11:09:21.756Z,1.98
2023-01-18T11:10:21.733Z,1.97
2023-01-18T11:11:21.716Z,1.96
2023-01-18T11:12:21.711Z,1.95
2023-01-18T11:13:21.715Z,1.95
2023-01-18T11:14:21.714Z,1.94
2023-01-18T11:15:21.688Z,1.94
2023-01-18T11:16:21.711Z,1.94
2023-01-18T11:17:21.683Z,1.94
2023-01-18T11:18:21.652Z,1.94
2023-01-18T11:19:21.633Z,1.94
2023-01-18T11:20:21.663Z,1.94
2023-01-18T11:21:21.635Z,1.94
2023-01-18T11:22:21.654Z,1.95
2023-01-18T11:23:21.608Z,1.96
2023-01-18T11:24:21.589Z,1.98
2023-01-18T11:25:21.581Z,1.99
2023-01-18T11:26:21.588Z,2.01
2023-01-18T11:27:21.601Z,2.03
2023-01-18T11:28:21.553Z,2.05
2023-01-18T11:29:21.548Z,2.07
2023-01-18T11:30:21.512Z,2.10
2023-01-18T11:31:22.271Z,2.13
2023-01-18T11:32:21.494Z,2.15
2023-01-18T11:33:21.495Z,2.17
2023-01-18T11:34:21.489Z,2.19
2023-01-18T11:35:21.463Z,2.21
2023-01-18T11:36:21.472Z,2.23
2023-01-18T11:37:21.433Z,2.24
2023-01-18T11:38:21.442Z,2.25
2023-01-18T11:39:21.437Z,2.26
2023-01-18T11:40:21.418Z,2.27
2023-01-18T11:41:21.413Z,2.27
2023-01-18T11:42:21.395Z,2.28
2023-01-18T11:43:21.397Z,2.29
2023-01-18T11:44:21.384Z,2.31
2023-01-18T11:45:22.472Z,2.32
2023-01-18T11:46:21.384Z,2.33
2023-01-18T11:47:21.459Z,2.33
2023-01-18T11:48:21.332Z,2.33
2023-01-18T11:49:21.313Z,2.34
2023-01-18T11:50:22.685Z,2.34
2023-01-18T11:51:21.302Z,2.34
2023-01-18T11:52:21.304Z,2.34
2023-01-18T11:53:21.268Z,2.35
2023-01-18T11:54:21.262Z,2.35
2023-01-18T11:55:21.251Z,2.35
2023-01-18T11:56:21.246Z,2.35
2023-01-18T11:57:21.222Z,2.35
2023-01-18T11:58:21.236Z,2.35
2023-01-18T11:59:22.154Z,2.35
2023-01-18T12:00:21.206Z,2.34
2023-01-18T12:01:21.223Z,2.34
2023-01-18T12:02:21.246Z,2.33
2023-01-18T12:03:21.208Z,2.33
2023-01-18T12:04:21.151Z,2.32
2023-01-18T12:05:21.138Z,2.32
2023-01-18T12:06:21.128Z,2.32
2023-01-18T12:07:21.116Z,2.31
2023-01-18T12:08:21.747Z,2.30
2023-01-18T12:09:21.106Z,2.28
2023-01-18T12:10:21.092Z,2.25
2023-01-18T12:11:21.087Z,2.22
2023-01-18T12:12:21.060Z,2.20
2023-01-18T12:13:21.072Z,2.18
2023-01-18T12:14:21.076Z,2.17
2023-01-18T12:15:21.077Z,2.15
2023-01-18T12:16:21.029Z,2.13
2023-01-18T12:17:21.033Z,2.11
2023-01-18T12:18:21.015Z,2.10
2023-01-18T12:19:21.024Z,2.09
2023-01-18T12:20:20.981Z,2.08
2023-01-18T12:21:20.973Z,2.08
2023-01-18T12:22:20.957Z,2.07
2023-01-18T12:23:20.956Z,2.08
2023-01-18T12:24:20.966Z,2.08
2023-01-18T12:25:20.967Z,2.09
2023-01-18T12:26:20.930Z,2.10
2023-01-18T12:27:20.944Z,2.11
2023-01-18T12:28:20.890Z,2.13
2023-01-18T12:29:20.885Z,2.14
2023-01-18T12:30:20.885Z,2.15
2023-01-18T12:31:20.885Z,2.15
2023-01-18T12:32:20.862Z,2.14
2023-01-18T12:33:31.273Z,2.13
2023-01-18T12:34:21.839Z,2.11
2023-01-18T12:35:24.852Z,2.10
2023-01-18T12:36:20.842Z,2.09
2023-01-18T12:37:20.815Z,2.08
2023-01-18T12:38:20.789Z,2.08
2023-01-18T12:39:20.777Z,2.08
2023-01-18T12:40:20.778Z,2.08
2023-01-18T12:41:20.757Z,2.09
2023-01-18T12:42:20.753Z,2.10
2023-01-18T12:43:20.741Z,2.11
2023-01-18T12:44:20.724Z,2.13
2023-01-18T12:45:20.702Z,2.15
2023-01-18T12:46:20.755Z,2.16
2023-01-18T12:47:20.684Z,2.18
2023-01-18T12:48:20.689Z,2.20
2023-01-18T12:49:20.675Z,2.22
2023-01-18T12:50:23.047Z,2.24
2023-01-18T12:51:20.648Z,2.25
2023-01-18T12:52:20.633Z,2.27
2023-01-18T12:53:20.613Z,2.29
2023-01-18T12:54:20.625Z,2.31
2023-01-18T12:55:20.603Z,2.33
2023-01-18T12:56:20.624Z,2.34
2023-01-18T12:57:20.597Z,2.34
2023-01-18T12:58:20.568Z,2.34
2023-01-18T12:59:20.598Z,2.35
2023-01-18T13:00:20.562Z,2.36
2023-01-18T13:01:20.628Z,2.36
2023-01-18T13:02:20.558Z,2.37
2023-01-18T13:03:20.515Z,2.38
2023-01-18T13:04:20.510Z,2.38
2023-01-18T13:05:20.506Z,2.39
2023-01-18T13:06:20.507Z,2.40
2023-01-18T13:07:20.471Z,2.41
2023-01-18T13:08:20.469Z,2.42
2023-01-18T13:09:20.449Z,2.44
2023-01-18T13:10:20.436Z,2.45
2023-01-18T13:11:20.444Z,2.46
2023-01-18T13:12:20.444Z,2.47
2023-01-18T13:13:20.409Z,2.48
2023-01-18T13:14:20.417Z,2.49
2023-01-18T13:15:20.397Z,2.49
2023-01-18T13:16:20.390Z,2.49
2023-01-18T13:17:20.396Z,2.48
2023-01-18T13:18:20.355Z,2.46